Time;durP1;ratioP1;P1;durP2;ratioP2;P2;SDS_P1;SDS_P2;PMS_P1;PMS_P2;Temp;Humidity;BMP_temperature;BMP_pressure;BME280_temperature;BME280_humidity;BME280_pressure;Samples;Min_cycle;Max_cycle;Signal;HPM_P1;HPM_P2
2022/09/23 00:01:22;;;;;;;5.73;5.23;;;9.40;99.90;;;;;;5029493;28;20957;-59
2022/09/23 00:03:48;;;;;;;6.70;5.90;;;9.90;99.90;;;;;;5030244;28;20530;-59
2022/09/23 00:06:18;;;;;;;7.45;5.65;;;9.90;99.90;;;;;;5028898;28;20449;-58
2022/09/23 00:08:44;;;;;;;6.70;6.00;;;10.00;99.90;;;;;;5030356;28;20826;-59
2022/09/23 00:11:12;;;;;;;7.23;5.73;;;10.00;99.90;;;;;;5027306;28;20183;-58
2022/09/23 00:13:39;;;;;;;6.72;6.10;;;9.90;99.90;;;;;;5030168;28;20432;-59
2022/09/23 00:16:07;;;;;;;6.53;5.88;;;9.50;99.90;;;;;;5029850;28;20225;-59
2022/09/23 00:18:32;;;;;;;6.80;6.10;;;9.60;99.90;;;;;;5029841;28;20229;-60
2022/09/23 00:21:08;;;;;;;6.30;5.70;;;9.60;99.90;;;;;;5020418;28;20840;-60
2022/09/23 00:23:34;;;;;;;6.30;5.75;;;9.60;99.90;;;;;;5035293;28;20192;-60
2022/09/23 00:26:03;;;;;;;5.90;5.40;;;9.40;99.90;;;;;;5023157;28;20298;-59
2022/09/23 00:28:30;;;;;;;7.47;5.57;;;9.40;99.90;;;;;;5027748;28;20290;-59
2022/09/23 00:30:55;;;;;;;6.13;5.63;;;9.50;99.90;;;;;;5046509;28;20735;-59
2022/09/23 00:33:21;;;;;;;9.37;6.87;;;9.40;99.90;;;;;;5027870;28;20183;-58
2022/09/23 00:35:46;;;;;;;6.03;5.53;;;9.30;99.90;;;;;;5030036;28;20213;-58
2022/09/23 00:38:13;;;;;;;7.07;6.03;;;9.60;99.90;;;;;;5028946;28;20245;-58
2022/09/23 00:40:45;;;;;;;6.00;5.50;;;9.40;99.90;;;;;;5010004;28;20827;-59
2022/09/23 00:43:13;;;;;;;6.57;6.00;;;9.40;99.90;;;;;;5026883;28;20202;-58
2022/09/23 00:45:45;;;;;;;6.07;5.53;;;9.40;99.90;;;;;;5018806;28;20207;-60
2022/09/23 00:48:16;;;;;;;7.85;6.35;;;9.30;99.90;;;;;;5033845;28;20215;-60
2022/09/23 00:50:45;;;;;;;7.78;7.07;;;9.40;99.90;;;;;;5049050;28;20184;-60
2022/09/23 00:53:13;;;;;;;6.68;6.07;;;9.10;99.90;;;;;;5030627;28;21000;-59
2022/09/23 00:55:49;;;;;;;6.13;5.63;;;9.10;99.90;;;;;;5026588;28;20223;-58
2022/09/23 00:58:20;;;;;;;6.07;5.47;;;9.20;99.90;;;;;;5011419;28;20186;-61
2022/09/23 01:00:46;;;;;;;6.05;5.47;;;9.10;99.90;;;;;;5026908;28;20884;-59
2022/09/23 01:03:13;;;;;;;7.30;6.00;;;9.20;99.90;;;;;;5029854;28;20671;-58
2022/09/23 01:05:40;;;;;;;6.95;5.55;;;9.40;99.90;;;;;;5029198;28;20236;-59
2022/09/23 01:08:08;;;;;;;6.35;5.75;;;9.30;99.90;;;;;;5029499;28;20263;-59
2022/09/23 01:11:01;;;;;;;5.88;5.25;;;9.00;99.90;;;;;;5021757;28;20188;-59
2022/09/23 01:14:08;;;;;;;6.35;5.85;;;9.30;99.90;;;;;;5026144;28;20248;-58
2022/09/23 01:16:57;;;;;;;5.93;5.38;;;9.30;99.90;;;;;;5018795;28;20668;-58
2022/09/23 01:19:28;;;;;;;6.10;5.60;;;9.20;99.90;;;;;;5027292;28;20198;-58
2022/09/23 01:22:13;;;;;;;6.32;5.35;;;9.00;99.90;;;;;;5032782;28;20187;-60
2022/09/23 01:25:07;;;;;;;7.15;5.63;;;9.20;99.90;;;;;;5032526;28;20699;-59
2022/09/23 01:28:04;;;;;;;7.00;6.40;;;9.20;99.90;;;;;;5030429;28;20206;-59
2022/09/23 01:30:49;;;;;;;5.90;5.30;;;9.10;99.90;;;;;;5032406;28;20186;-59
2022/09/23 01:33:37;;;;;;;5.13;4.72;;;9.20;99.90;;;;;;5032992;28;20190;-59
2022/09/23 01:36:32;;;;;;;5.70;5.20;;;8.80;99.90;;;;;;5017709;28;20217;-60
2022/09/23 01:39:19;;;;;;;5.90;5.40;;;8.80;99.90;;;;;;5034069;28;20242;-59
2022/09/23 01:41:52;;;;;;;6.70;5.47;;;8.80;99.90;;;;;;5031630;28;20214;-60
2022/09/23 01:44:33;;;;;;;7.15;5.65;;;8.90;99.90;;;;;;5039739;28;20194;-59
2022/09/23 01:47:07;;;;;;;5.97;5.15;;;8.80;99.90;;;;;;5032622;28;20190;-59
2022/09/23 01:49:49;;;;;;;5.63;5.10;;;8.70;99.90;;;;;;5031618;28;20202;-59
2022/09/23 01:52:30;;;;;;;5.32;4.93;;;8.70;99.90;;;;;;5028859;28;20592;-59
2022/09/23 01:55:07;;;;;;;6.07;5.47;;;9.00;99.90;;;;;;5034700;28;20210;-59
2022/09/23 01:57:48;;;;;;;5.55;5.07;;;8.70;99.90;;;;;;5027472;28;20213;-59
2022/09/23 02:00:17;;;;;;;5.80;5.20;;;8.50;99.90;;;;;;5033768;28;20182;-59
2022/09/23 02:02:53;;;;;;;5.22;4.82;;;8.70;99.90;;;;;;5034768;28;20199;-59
2022/09/23 02:05:40;;;;;;;5.80;5.30;;;8.80;99.90;;;;;;5031157;28;20284;-58
2022/09/23 02:08:08;;;;;;;5.45;4.63;;;8.80;99.90;;;;;;5022780;28;20206;-58
2022/09/23 02:10:46;;;;;;;5.40;4.90;;;8.90;99.90;;;;;;5023266;28;20188;-58
2022/09/23 02:13:50;;;;;;;5.25;4.85;;;8.70;99.90;;;;;;5024334;28;20185;-58
2022/09/23 02:16:38;;;;;;;5.78;5.28;;;8.70;99.90;;;;;;4992627;28;20205;-59
2022/09/23 02:19:12;;;;;;;5.55;5.05;;;8.90;99.90;;;;;;5030481;28;20659;-58
2022/09/23 02:21:43;;;;;;;5.35;4.85;;;8.60;99.90;;;;;;5031292;28;20219;-59
2022/09/23 02:24:14;;;;;;;5.90;4.93;;;8.60;99.90;;;;;;5031871;28;20292;-59
2022/09/23 02:26:44;;;;;;;5.55;5.07;;;8.60;99.90;;;;;;5027618;28;20191;-60
2022/09/23 02:29:15;;;;;;;5.70;5.22;;;8.60;99.90;;;;;;5031783;28;20217;-60
2022/09/23 02:31:54;;;;;;;5.25;4.85;;;8.60;99.90;;;;;;5041073;28;20265;-59
2022/09/23 02:34:29;;;;;;;7.28;5.20;;;8.70;99.90;;;;;;5024623;28;20229;-60
2022/09/23 02:37:10;;;;;;;5.18;4.78;;;8.80;99.90;;;;;;5026901;28;20186;-60
2022/09/23 02:39:51;;;;;;;4.80;4.40;;;8.90;99.90;;;;;;5023604;28;20201;-59
2022/09/23 02:42:22;;;;;;;5.75;4.75;;;8.50;99.90;;;;;;5025857;28;20182;-59
2022/09/23 02:44:47;;;;;;;5.65;5.15;;;8.30;99.90;;;;;;5031412;28;20206;-60
2022/09/23 02:47:13;;;;;;;5.30;4.87;;;8.40;99.90;;;;;;5031006;28;20183;-60
2022/09/23 02:49:39;;;;;;;6.22;5.30;;;8.50;99.90;;;;;;5027418;28;20210;-61
2022/09/23 02:52:06;;;;;;;4.43;4.07;;;8.40;99.90;;;;;;5029808;28;20720;-61
2022/09/23 02:54:33;;;;;;;5.80;5.30;;;8.30;99.90;;;;;;5034325;28;20212;-60
2022/09/23 02:57:01;;;;;;;5.05;4.65;;;8.50;99.90;;;;;;5028881;28;20188;-60
2022/09/23 02:59:27;;;;;;;5.70;5.20;;;8.40;99.90;;;;;;5040247;28;20287;-60
2022/09/23 03:02:03;;;;;;;5.97;5.40;;;8.50;99.90;;;;;;5038525;28;20186;-59
2022/09/23 03:04:51;;;;;;;5.00;4.50;;;8.50;99.90;;;;;;5027621;28;20209;-60
2022/09/23 03:07:32;;;;;;;5.28;4.30;;;8.50;99.90;;;;;;5031082;28;20187;-60
2022/09/23 03:10:04;;;;;;;7.65;5.32;;;8.70;99.90;;;;;;5013972;28;20211;-60
2022/09/23 03:12:51;;;;;;;5.38;4.88;;;8.40;99.90;;;;;;5039718;28;20189;-60
2022/09/23 03:15:20;;;;;;;4.90;4.50;;;8.60;99.90;;;;;;5031034;28;20289;-59
2022/09/23 03:17:54;;;;;;;5.53;5.03;;;8.30;99.90;;;;;;5031282;28;20179;-60
2022/09/23 03:20:34;;;;;;;5.80;4.75;;;8.30;99.90;;;;;;5031794;28;20181;-59
2022/09/23 03:23:05;;;;;;;5.20;4.80;;;8.50;99.90;;;;;;5026057;28;20540;-60
2022/09/23 03:25:35;;;;;;;4.95;4.45;;;8.90;99.90;;;;;;5030856;28;20218;-59
2022/09/23 03:28:02;;;;;;;6.05;5.32;;;8.30;99.90;;;;;;5046544;28;20628;-60
2022/09/23 03:30:30;;;;;;;4.97;4.47;;;8.40;99.90;;;;;;5025069;28;20277;-59
2022/09/23 03:32:59;;;;;;;6.00;5.07;;;8.40;99.90;;;;;;5035322;28;20649;-59
2022/09/23 03:35:27;;;;;;;5.25;4.75;;;8.90;99.90;;;;;;5032942;28;20296;-59
2022/09/23 03:38:03;;;;;;;5.63;5.13;;;8.20;99.90;;;;;;5025553;28;20186;-59
2022/09/23 03:40:34;;;;;;;4.88;4.40;;;8.00;99.90;;;;;;5033080;28;20178;-60
2022/09/23 03:43:01;;;;;;;5.25;4.75;;;8.60;99.90;;;;;;5025456;28;20192;-60
2022/09/23 03:45:31;;;;;;;5.32;4.65;;;8.20;99.90;;;;;;5027747;28;20214;-60
2022/09/23 03:47:56;;;;;;;5.10;4.50;;;7.90;99.90;;;;;;5032309;28;20197;-59
2022/09/23 03:50:23;;;;;;;6.30;5.80;;;8.10;99.90;;;;;;5044710;28;20178;-60
2022/09/23 03:52:49;;;;;;;5.03;4.63;;;8.10;99.90;;;;;;5030797;28;20186;-59
2022/09/23 03:55:16;;;;;;;5.60;5.10;;;7.60;99.90;;;;;;5029835;28;20731;-59
2022/09/23 03:57:42;;;;;;;6.30;4.90;;;8.30;99.90;;;;;;5036154;28;20271;-58
2022/09/23 04:00:08;;;;;;;5.27;4.87;;;8.10;99.90;;;;;;5045171;28;20216;-61
2022/09/23 04:02:34;;;;;;;6.93;5.13;;;8.20;99.90;;;;;;5042665;28;20412;-59
2022/09/23 04:05:00;;;;;;;8.60;4.90;;;8.30;99.90;;;;;;5037268;28;20201;-60
2022/09/23 04:07:26;;;;;;;5.93;5.33;;;8.10;99.90;;;;;;5041215;28;20193;-60
2022/09/23 04:09:51;;;;;;;6.00;5.40;;;8.30;99.90;;;;;;5037404;28;20334;-60
2022/09/23 04:12:17;;;;;;;5.90;5.40;;;8.20;99.90;;;;;;5014375;28;20536;-59
2022/09/23 04:14:44;;;;;;;5.10;4.68;;;8.40;99.90;;;;;;5021959;28;20862;-60
2022/09/23 04:17:10;;;;;;;4.95;4.47;;;7.50;99.90;;;;;;5026529;28;20182;-59
2022/09/23 04:19:36;;;;;;;5.50;5.10;;;7.70;99.90;;;;;;5037802;28;20813;-59
2022/09/23 04:22:02;;;;;;;5.43;4.93;;;8.30;99.90;;;;;;5032906;28;20269;-58
2022/09/23 04:24:27;;;;;;;6.20;5.60;;;8.00;99.90;;;;;;5022423;28;20302;-59
2022/09/23 04:26:54;;;;;;;7.70;5.50;;;8.10;99.90;;;;;;5016886;28;20817;-58
2022/09/23 04:29:20;;;;;;;6.20;5.60;;;8.20;99.90;;;;;;5032283;28;20222;-60
2022/09/23 04:31:46;;;;;;;5.38;4.93;;;8.20;99.90;;;;;;5039162;28;20236;-61
2022/09/23 04:34:12;;;;;;;5.40;4.95;;;7.90;99.90;;;;;;5016555;28;20765;-60
2022/09/23 04:36:37;;;;;;;5.10;4.60;;;8.00;99.90;;;;;;5027911;28;20193;-61
2022/09/23 04:39:04;;;;;;;8.60;6.00;;;8.20;99.90;;;;;;5033449;28;20217;-60
2022/09/23 04:41:30;;;;;;;5.50;4.90;;;8.00;99.90;;;;;;5022593;28;20189;-61
2022/09/23 04:43:56;;;;;;;7.53;5.07;;;8.30;99.90;;;;;;5029245;28;20328;-61
2022/09/23 04:46:22;;;;;;;5.82;5.25;;;8.30;99.90;;;;;;5030265;28;20321;-61
2022/09/23 04:48:48;;;;;;;5.35;4.85;;;8.40;99.90;;;;;;5024487;28;20206;-61
2022/09/23 04:51:16;;;;;;;5.03;4.60;;;8.40;99.90;;;;;;5027777;28;20183;-60
2022/09/23 04:53:44;;;;;;;5.32;4.82;;;8.40;99.90;;;;;;5029301;28;20191;-58
2022/09/23 04:56:15;;;;;;;6.07;5.47;;;8.30;99.90;;;;;;5020882;28;20769;-61
2022/09/23 04:58:42;;;;;;;5.80;5.20;;;8.30;99.90;;;;;;5027558;28;20679;-59
2022/09/23 05:01:10;;;;;;;5.32;4.93;;;8.50;99.90;;;;;;5029482;28;20285;-60
2022/09/23 05:03:36;;;;;;;6.30;5.80;;;8.40;99.90;;;;;;5030542;28;20249;-59
2022/09/23 05:06:01;;;;;;;6.90;5.68;;;8.30;99.90;;;;;;5031063;28;20246;-59
2022/09/23 05:08:27;;;;;;;6.13;5.63;;;8.30;99.90;;;;;;5024730;28;20234;-62
2022/09/23 05:11:01;;;;;;;7.60;6.20;;;8.50;99.90;;;;;;5025832;28;20189;-61
2022/09/23 05:13:27;;;;;;;6.35;5.75;;;8.30;99.90;;;;;;5044911;28;20448;-60
2022/09/23 05:16:06;;;;;;;6.63;6.03;;;8.60;99.90;;;;;;5034064;28;20214;-59
2022/09/23 05:18:36;;;;;;;6.30;5.80;;;8.80;99.90;;;;;;5032486;28;20419;-65
2022/09/23 05:21:03;;;;;;;9.20;6.40;;;8.40;99.90;;;;;;5027963;28;20269;-60
2022/09/23 05:23:32;;;;;;;7.28;5.97;;;8.60;99.90;;;;;;5024434;28;20218;-59
2022/09/23 05:26:06;;;;;;;6.53;5.93;;;8.50;99.90;;;;;;5024874;28;20771;-61
2022/09/23 05:28:42;;;;;;;10.38;9.18;;;8.50;99.90;;;;;;5026537;28;20202;-61
2022/09/23 05:31:15;;;;;;;7.25;6.28;;;8.50;99.90;;;;;;5021240;28;20193;-61
2022/09/23 05:33:43;;;;;;;9.77;8.77;;;8.60;99.90;;;;;;5031639;28;20280;-60
2022/09/23 05:36:09;;;;;;;8.95;7.93;;;8.90;99.90;;;;;;5030784;28;20202;-61
2022/09/23 05:38:35;;;;;;;10.95;9.60;;;8.70;99.90;;;;;;5029777;28;20216;-59
2022/09/23 05:41:03;;;;;;;9.15;8.25;;;8.80;99.90;;;;;;5047279;28;20190;-60
2022/09/23 05:43:29;;;;;;;8.77;7.97;;;9.00;99.90;;;;;;5033750;28;20210;-60
2022/09/23 05:46:26;;;;;;;8.63;6.18;;;8.90;99.90;;;;;;5040414;28;20481;-60
2022/09/23 05:48:53;;;;;;;6.95;5.90;;;9.10;99.90;;;;;;5041011;28;20218;-59
2022/09/23 05:51:21;;;;;;;8.10;7.30;;;9.00;99.90;;;;;;5044376;28;20182;-61
2022/09/23 05:53:47;;;;;;;6.70;6.10;;;9.20;99.90;;;;;;5025847;28;20215;-60
2022/09/23 05:56:14;;;;;;;8.00;7.20;;;9.20;99.90;;;;;;5024299;28;20702;-60
2022/09/23 05:58:40;;;;;;;7.05;6.35;;;9.10;99.90;;;;;;5031766;28;20193;-60
2022/09/23 06:01:17;;;;;;;8.90;6.07;;;9.10;99.90;;;;;;5030943;28;20184;-60
2022/09/23 06:03:50;;;;;;;7.00;6.30;;;9.10;99.90;;;;;;5026407;28;20416;-60
2022/09/23 06:06:17;;;;;;;10.23;5.93;;;9.10;99.90;;;;;;5027839;28;20194;-60
2022/09/23 06:08:44;;;;;;;8.88;6.13;;;9.20;99.90;;;;;;5031410;28;20214;-60
2022/09/23 06:11:10;;;;;;;6.32;5.80;;;9.30;99.90;;;;;;5023202;28;20193;-60
2022/09/23 06:13:37;;;;;;;9.50;6.40;;;9.10;99.90;;;;;;5032201;28;20194;-59
2022/09/23 06:16:08;;;;;;;8.75;6.22;;;9.40;99.90;;;;;;5031315;28;20203;-60
2022/09/23 06:18:37;;;;;;;6.88;6.28;;;9.30;99.90;;;;;;5031704;28;20555;-60
2022/09/23 06:21:03;;;;;;;7.55;6.32;;;9.40;99.90;;;;;;5032651;28;20674;-60
2022/09/23 06:23:29;;;;;;;7.05;6.45;;;9.60;99.90;;;;;;5033624;28;20210;-61
2022/09/23 06:25:59;;;;;;;7.80;7.20;;;9.60;99.90;;;;;;5019929;28;20301;-60
2022/09/23 06:28:34;;;;;;;7.28;6.22;;;9.90;99.90;;;;;;5046736;28;20441;-60
2022/09/23 06:31:02;;;;;;;7.55;5.78;;;9.80;99.90;;;;;;5051286;28;20210;-59
2022/09/23 06:33:28;;;;;;;8.68;5.95;;;10.20;99.90;;;;;;5031357;28;20210;-60
2022/09/23 06:35:57;;;;;;;7.15;6.45;;;10.30;99.90;;;;;;5030046;28;20213;-61
2022/09/23 06:38:24;;;;;;;6.28;5.78;;;10.50;99.90;;;;;;5025058;28;20226;-60
2022/09/23 06:40:54;;;;;;;6.70;6.13;;;10.50;99.90;;;;;;5028172;28;20678;-60
2022/09/23 06:43:21;;;;;;;6.60;5.95;;;10.50;99.90;;;;;;5038943;28;20184;-60
2022/09/23 06:45:52;;;;;;;6.72;5.90;;;10.90;99.90;;;;;;5039587;28;20232;-59
2022/09/23 06:48:18;;;;;;;8.00;6.53;;;10.90;99.90;;;;;;5051038;28;20572;-60
2022/09/23 06:50:43;;;;;;;10.13;9.20;;;11.20;99.90;;;;;;5024532;28;20515;-60
2022/09/23 06:53:09;;;;;;;8.17;7.37;;;11.00;99.90;;;;;;5019286;28;20670;-60
2022/09/23 06:55:35;;;;;;;7.80;7.10;;;11.60;99.90;;;;;;5022792;28;20237;-59
2022/09/23 06:58:00;;;;;;;7.10;6.40;;;12.70;99.90;;;;;;5030699;28;20186;-60
2022/09/23 07:00:26;;;;;;;6.03;5.53;;;12.60;99.90;;;;;;5030565;28;20178;-60
2022/09/23 07:02:53;;;;;;;8.57;7.40;;;13.30;99.90;;;;;;5035464;28;20279;-60
2022/09/23 07:05:21;;;;;;;8.25;7.55;;;14.20;99.90;;;;;;5031561;28;20198;-60
2022/09/23 07:07:47;;;;;;;6.50;5.90;;;15.70;98.00;;;;;;5030195;28;20683;-60
2022/09/23 07:10:13;;;;;;;12.33;11.20;;;17.00;94.20;;;;;;5024832;28;20221;-60
2022/09/23 07:12:40;;;;;;;7.93;7.15;;;18.10;91.60;;;;;;5030272;28;20463;-62
2022/09/23 07:15:07;;;;;;;6.10;5.50;;;19.20;89.40;;;;;;5030372;28;20258;-61
2022/09/23 07:17:33;;;;;;;7.00;6.30;;;19.90;85.70;;;;;;5030569;28;20441;-60
2022/09/23 07:20:00;;;;;;;6.55;5.80;;;20.50;79.80;;;;;;5030000;28;20552;-62
2022/09/23 07:22:25;;;;;;;6.20;5.47;;;21.70;76.20;;;;;;5030256;28;20189;-62
2022/09/23 07:24:55;;;;;;;5.43;4.93;;;22.40;72.00;;;;;;5029440;28;20452;-61
2022/09/23 07:27:24;;;;;;;5.53;5.13;;;23.00;68.20;;;;;;5019014;28;20266;-62
2022/09/23 07:29:50;;;;;;;5.57;5.17;;;23.60;66.70;;;;;;5030215;28;20472;-60
2022/09/23 07:32:17;;;;;;;4.83;4.43;;;24.30;63.40;;;;;;5030431;28;20437;-60
2022/09/23 07:34:43;;;;;;;4.90;4.47;;;24.60;58.60;;;;;;5028361;28;20486;-63
2022/09/23 07:37:09;;;;;;;4.60;4.03;;;25.30;58.50;;;;;;5036984;28;20432;-60
2022/09/23 07:39:35;;;;;;;5.50;4.40;;;26.00;56.80;;;;;;5034417;28;20185;-60
2022/09/23 07:42:04;;;;;;;7.03;6.40;;;25.40;55.70;;;;;;5019134;28;20980;-60
2022/09/23 07:44:30;;;;;;;7.17;5.83;;;24.90;56.80;;;;;;5021684;28;20468;-61
2022/09/23 07:46:57;;;;;;;4.73;4.33;;;24.70;56.70;;;;;;5027507;28;20439;-62
2022/09/23 07:49:23;;;;;;;5.53;5.07;;;24.30;56.80;;;;;;5031272;28;20462;-62
2022/09/23 07:51:48;;;;;;;6.77;4.10;;;24.90;57.00;;;;;;5039418;28;20768;-60
2022/09/23 07:54:15;;;;;;;5.63;5.13;;;24.60;55.90;;;;;;5043838;28;20462;-62
2022/09/23 07:56:42;;;;;;;4.40;4.00;;;23.50;56.10;;;;;;5039478;28;20545;-61
2022/09/23 07:59:14;;;;;;;5.60;5.10;;;23.60;57.80;;;;;;5033240;28;20523;-60
2022/09/23 08:01:43;;;;;;;6.03;4.27;;;23.60;58.10;;;;;;5038987;28;20435;-60
2022/09/23 08:04:21;;;;;;;4.50;4.10;;;23.10;57.90;;;;;;5033661;28;20435;-59
2022/09/23 08:06:52;;;;;;;7.60;4.97;;;22.60;58.90;;;;;;5047856;28;20468;-60
2022/09/23 08:09:19;;;;;;;5.38;4.90;;;21.70;59.80;;;;;;5042649;28;20479;-62
2022/09/23 08:11:45;;;;;;;4.55;4.25;;;20.50;62.90;;;;;;5036339;28;20193;-59
2022/09/23 08:14:14;;;;;;;5.07;4.53;;;20.10;66.30;;;;;;5028671;28;20206;-60
2022/09/23 08:16:40;;;;;;;6.78;4.00;;;19.90;66.50;;;;;;5018884;28;20212;-61
2022/09/23 08:19:07;;;;;;;18.25;7.88;;;19.60;68.10;;;;;;5029760;28;20559;-60
2022/09/23 08:21:33;;;;;;;4.80;4.30;;;18.90;70.80;;;;;;5026409;28;20190;-59
2022/09/23 08:23:58;;;;;;;5.50;4.30;;;18.50;72.40;;;;;;5029495;28;20200;-61
2022/09/23 08:26:24;;;;;;;7.63;6.20;;;18.40;73.90;;;;;;5018274;28;20449;-61
2022/09/23 08:28:53;;;;;;;5.10;4.33;;;18.30;75.30;;;;;;5037333;28;20635;-60
2022/09/23 08:31:20;;;;;;;5.28;4.45;;;18.10;76.30;;;;;;5034113;28;20622;-58
2022/09/23 08:33:46;;;;;;;5.72;4.65;;;17.90;77.60;;;;;;5032190;28;20300;-61
2022/09/23 08:36:12;;;;;;;6.80;4.20;;;17.90;78.20;;;;;;5044888;28;20535;-59
2022/09/23 08:38:38;;;;;;;5.03;4.50;;;17.60;79.40;;;;;;5033651;28;20197;-59
2022/09/23 08:41:21;;;;;;;4.57;4.13;;;17.80;80.50;;;;;;5031986;28;20182;-59
2022/09/23 08:43:50;;;;;;;5.28;3.88;;;17.70;80.70;;;;;;5033297;28;20193;-61
2022/09/23 08:46:22;;;;;;;8.75;4.30;;;17.60;80.30;;;;;;5044316;28;20186;-61
2022/09/23 08:48:49;;;;;;;7.13;4.03;;;17.90;80.10;;;;;;5030614;28;20230;-59
2022/09/23 08:51:22;;;;;;;4.15;3.75;;;18.00;79.70;;;;;;5030297;28;20189;-60
2022/09/23 08:53:48;;;;;;;4.60;4.05;;;18.00;80.10;;;;;;5032925;28;20178;-60
2022/09/23 08:56:21;;;;;;;4.37;4.07;;;18.00;79.80;;;;;;5030280;28;20620;-61
2022/09/23 08:59:10;;;;;;;4.30;3.90;;;17.80;80.70;;;;;;5032889;28;20269;-61
2022/09/23 09:01:44;;;;;;;4.93;4.25;;;18.10;80.50;;;;;;5034952;28;20610;-59
2022/09/23 09:04:43;;;;;;;4.60;4.20;;;18.10;80.30;;;;;;5033833;28;20670;-61
2022/09/23 09:07:08;;;;;;;4.43;4.03;;;18.00;80.90;;;;;;5027186;28;20186;-61
2022/09/23 09:09:48;;;;;;;7.30;5.80;;;18.10;81.20;;;;;;5032937;28;20210;-60
2022/09/23 09:12:17;;;;;;;4.90;4.40;;;18.00;81.30;;;;;;5030192;28;20178;-60
2022/09/23 09:15:06;;;;;;;4.30;3.90;;;18.10;81.70;;;;;;5020616;28;20229;-59
2022/09/23 09:17:35;;;;;;;4.30;3.90;;;18.20;81.40;;;;;;5020741;28;20181;-60
2022/09/23 09:20:19;;;;;;;3.85;3.50;;;18.30;81.20;;;;;;5031780;28;20682;-61
2022/09/23 09:22:58;;;;;;;7.03;4.03;;;18.10;81.20;;;;;;5032552;28;20186;-61
2022/09/23 09:25:27;;;;;;;4.25;3.85;;;18.10;82.20;;;;;;5026913;28;20207;-60
2022/09/23 09:27:54;;;;;;;4.20;3.80;;;18.10;81.30;;;;;;5025904;28;20220;-60
2022/09/23 09:30:20;;;;;;;5.20;3.70;;;18.50;80.20;;;;;;5032418;28;20198;-60
2022/09/23 09:33:03;;;;;;;5.97;3.53;;;18.70;79.80;;;;;;5032192;28;20847;-62
2022/09/23 09:35:37;;;;;;;4.25;3.90;;;18.80;79.70;;;;;;5028420;28;20217;-61
2022/09/23 09:38:04;;;;;;;9.35;5.90;;;19.10;79.00;;;;;;5030761;28;20182;-60
2022/09/23 09:40:31;;;;;;;4.00;3.70;;;19.40;78.20;;;;;;5025398;28;20171;-61
2022/09/23 09:42:57;;;;;;;4.45;4.05;;;20.30;74.60;;;;;;5028988;28;20189;-61
2022/09/23 09:45:52;;;;;;;5.53;3.50;;;21.20;71.70;;;;;;5032066;28;20206;-62
2022/09/23 09:48:27;;;;;;;5.70;3.63;;;22.20;66.70;;;;;;5032000;28;20868;-60
2022/09/23 09:50:54;;;;;;;4.20;3.90;;;23.10;64.50;;;;;;5021399;28;20504;-61
2022/09/23 09:53:26;;;;;;;5.43;4.17;;;23.10;62.50;;;;;;5032012;28;20879;-61
2022/09/23 09:56:07;;;;;;;3.80;3.37;;;24.10;62.30;;;;;;5024810;28;20488;-62
2022/09/23 09:58:57;;;;;;;3.70;3.40;;;26.10;58.10;;;;;;5031752;28;20436;-60
2022/09/23 10:01:29;;;;;;;3.90;3.50;;;26.50;54.80;;;;;;5019751;28;20435;-60
2022/09/23 10:03:57;;;;;;;6.07;3.47;;;28.00;52.70;;;;;;5028661;28;20534;-61
2022/09/23 10:06:25;;;;;;;3.10;2.90;;;27.20;52.00;;;;;;5030961;28;20484;-61
2022/09/23 10:09:03;;;;;;;5.40;3.10;;;27.90;50.90;;;;;;5031951;28;20479;-60
2022/09/23 10:11:30;;;;;;;3.20;3.00;;;28.00;50.60;;;;;;5019427;28;20509;-61
2022/09/23 10:14:04;;;;;;;4.70;3.70;;;26.90;50.20;;;;;;5022809;28;20456;-62
2022/09/23 10:16:33;;;;;;;4.00;3.60;;;25.40;53.30;;;;;;5027999;28;20503;-60
2022/09/23 10:19:10;;;;;;;3.80;3.50;;;24.50;54.90;;;;;;5034180;28;20533;-61
2022/09/23 10:21:37;;;;;;;5.07;3.27;;;23.50;57.00;;;;;;5032708;28;20425;-61
2022/09/23 10:24:07;;;;;;;4.90;3.63;;;23.50;58.10;;;;;;5040137;28;20451;-60
2022/09/23 10:26:36;;;;;;;3.60;3.30;;;22.70;58.70;;;;;;5024094;28;20436;-61
2022/09/23 10:29:30;;;;;;;14.03;12.57;;;22.60;61.10;;;;;;5041228;28;20560;-60
2022/09/23 10:32:18;;;;;;;4.28;3.90;;;22.00;61.20;;;;;;5018122;28;20427;-60
2022/09/23 10:34:47;;;;;;;4.47;4.17;;;21.40;63.40;;;;;;5022825;28;20233;-62
2022/09/23 10:37:17;;;;;;;3.70;3.40;;;21.30;64.90;;;;;;5051294;28;20420;-59
2022/09/23 10:48:37;;;;;;;3.57;3.27;;;21.30;65.70;;;;;;5027482;28;20795;-61
2022/09/23 10:51:39;;;;;;;4.23;3.37;;;21.40;65.40;;;;;;5027637;28;20547;-61
2022/09/23 10:54:20;;;;;;;4.97;4.03;;;21.50;65.60;;;;;;5030522;28;20431;-60
2022/09/23 10:56:56;;;;;;;4.60;3.80;;;21.40;64.90;;;;;;5028260;28;20459;-61
2022/09/23 10:59:55;;;;;;;3.63;3.33;;;21.50;65.30;;;;;;5030044;28;20481;-61
2022/09/23 11:02:43;;;;;;;4.10;3.70;;;21.10;63.80;;;;;;5001041;28;20437;-62
2022/09/23 11:05:24;;;;;;;4.83;3.47;;;21.60;65.00;;;;;;5024356;28;20496;-60
2022/09/23 11:08:29;;;;;;;4.15;3.75;;;21.40;65.20;;;;;;5033475;28;20440;-60
2022/09/23 11:11:11;;;;;;;3.72;3.42;;;20.70;64.70;;;;;;5030112;28;20547;-60
2022/09/23 11:13:53;;;;;;;3.50;3.20;;;21.20;65.50;;;;;;5023250;28;20186;-61
2022/09/23 11:16:35;;;;;;;3.83;3.37;;;21.10;66.40;;;;;;5028143;28;20261;-60
2022/09/23 11:19:23;;;;;;;4.10;3.40;;;21.00;67.20;;;;;;5036796;28;20435;-61
2022/09/23 11:22:11;;;;;;;3.67;3.37;;;21.00;67.90;;;;;;5031698;28;20453;-60
2022/09/23 11:25:15;;;;;;;5.60;3.43;;;20.90;68.50;;;;;;5036129;28;20467;-60
2022/09/23 11:28:11;;;;;;;4.20;3.20;;;20.90;68.30;;;;;;5034897;28;20435;-61
2022/09/23 11:30:39;;;;;;;6.43;3.77;;;21.00;68.50;;;;;;5019958;28;20483;-62
2022/09/23 11:33:25;;;;;;;4.40;3.78;;;21.10;69.10;;;;;;5046005;28;20428;-59
2022/09/23 11:35:57;;;;;;;4.10;3.70;;;20.90;68.50;;;;;;5026874;28;20237;-59
2022/09/23 11:38:30;;;;;;;3.20;3.00;;;20.90;68.60;;;;;;5028936;28;20610;-62
2022/09/23 11:41:20;;;;;;;4.57;4.13;;;20.80;68.00;;;;;;5020345;28;20189;-60
2022/09/23 11:43:51;;;;;;;4.80;4.30;;;20.90;69.30;;;;;;5019248;28;20190;-60
2022/09/23 11:46:30;;;;;;;5.00;4.18;;;20.90;69.40;;;;;;5029555;28;20251;-61
2022/09/23 11:49:06;;;;;;;4.88;3.47;;;20.90;67.90;;;;;;5029362;28;20217;-61
2022/09/23 11:52:01;;;;;;;3.60;3.30;;;20.90;67.50;;;;;;5030690;28;20650;-60
2022/09/23 11:54:37;;;;;;;4.20;3.80;;;21.10;67.70;;;;;;5032835;28;20210;-61
2022/09/23 11:57:08;;;;;;;5.05;4.55;;;21.10;67.80;;;;;;5026699;28;20235;-62
2022/09/23 11:59:49;;;;;;;4.15;3.85;;;20.90;68.70;;;;;;5026415;28;20186;-62
2022/09/23 12:02:38;;;;;;;4.65;4.25;;;20.90;69.20;;;;;;5027354;28;20213;-60
2022/09/23 12:05:12;;;;;;;3.95;3.60;;;21.00;67.70;;;;;;5024148;28;20234;-61
2022/09/23 12:07:56;;;;;;;4.10;3.67;;;20.90;68.30;;;;;;5025922;28;20190;-60
2022/09/23 12:10:47;;;;;;;6.53;4.05;;;20.90;68.40;;;;;;5025010;28;20848;-61
2022/09/23 12:13:17;;;;;;;4.10;3.45;;;20.90;69.10;;;;;;5019519;28;20593;-62
2022/09/23 12:16:14;;;;;;;3.22;3.03;;;20.80;69.00;;;;;;5014292;28;20635;-62
2022/09/23 12:19:17;;;;;;;5.70;4.55;;;20.70;68.00;;;;;;5005901;28;20193;-61
2022/09/23 12:21:46;;;;;;;3.83;3.53;;;20.70;69.60;;;;;;5043784;28;20181;-61
2022/09/23 12:24:37;;;;;;;5.13;3.90;;;20.80;70.00;;;;;;5027792;28;20571;-61
2022/09/23 12:27:09;;;;;;;5.53;4.18;;;20.80;69.00;;;;;;5022634;28;20209;-59
2022/09/23 12:29:38;;;;;;;4.22;3.83;;;20.80;69.20;;;;;;5043028;28;20220;-60
2022/09/23 12:32:08;;;;;;;3.88;3.58;;;20.70;70.30;;;;;;5048682;28;20268;-61
2022/09/23 12:34:47;;;;;;;4.00;3.70;;;20.70;68.50;;;;;;5027029;28;20249;-61
2022/09/23 12:37:21;;;;;;;4.80;4.00;;;20.60;68.80;;;;;;5022573;28;20239;-61
2022/09/23 12:39:47;;;;;;;4.70;4.40;;;20.40;69.40;;;;;;5035573;28;20255;-63
2022/09/23 12:42:17;;;;;;;4.13;3.80;;;20.40;70.00;;;;;;5019851;28;20308;-62
2022/09/23 12:44:46;;;;;;;5.00;4.50;;;20.30;70.50;;;;;;5028647;28;20540;-62
2022/09/23 12:47:20;;;;;;;4.40;4.10;;;20.30;70.40;;;;;;5020792;28;20647;-61
2022/09/23 12:49:47;;;;;;;4.43;3.97;;;20.70;70.90;;;;;;5042450;28;20206;-62
2022/09/23 12:52:30;;;;;;;4.88;4.15;;;20.60;70.80;;;;;;5018875;28;20284;-60
2022/09/23 12:55:18;;;;;;;4.70;4.38;;;20.50;71.10;;;;;;5023639;28;20206;-60
2022/09/23 12:57:44;;;;;;;4.60;3.97;;;20.40;70.10;;;;;;4995320;28;20201;-59
2022/09/23 13:00:21;;;;;;;7.17;6.57;;;20.70;69.90;;;;;;5029465;28;20182;-60
2022/09/23 13:06:37;;;;;;;5.55;4.40;;;20.80;70.70;;;;;;5042487;28;20267;-61
2022/09/23 13:08:45;;;;;;;6.00;5.45;;;20.80;71.30;;;;;;5041681;28;20252;-60
2022/09/23 13:11:27;;;;;;;5.00;4.50;;;20.70;70.10;;;;;;5037844;28;20189;-60
2022/09/23 13:13:56;;;;;;;5.15;4.75;;;20.50;71.10;;;;;;5037179;28;20198;-60
2022/09/23 13:16:25;;;;;;;5.50;5.00;;;20.70;70.00;;;;;;5032637;28;20174;-62
2022/09/23 13:19:05;;;;;;;6.22;5.63;;;20.40;70.50;;;;;;5033022;28;20190;-60
2022/09/23 13:21:45;;;;;;;5.55;5.05;;;20.80;71.10;;;;;;5026944;28;20694;-62
2022/09/23 13:24:29;;;;;;;5.30;4.80;;;20.80;71.10;;;;;;5017662;28;20211;-60
2022/09/23 13:27:04;;;;;;;7.07;5.80;;;20.60;70.90;;;;;;5019157;28;20213;-63
2022/09/23 13:29:54;;;;;;;5.65;5.25;;;20.60;70.50;;;;;;5032435;28;20271;-62
2022/09/23 13:32:21;;;;;;;5.20;4.80;;;20.50;71.30;;;;;;5032225;28;20647;-61